Time;durP1;ratioP1;P1;durP2;ratioP2;P2;SDS_P1;SDS_P2;PMS_P1;PMS_P2;Temp;Humidity;BMP_temperature;BMP_pressure;BME280_temperature;BME280_humidity;BME280_pressure;Samples;Min_cycle;Max_cycle;Signal;HPM_P1;HPM_P2
2022/12/23 00:00:22;;;;;;;32.63;11.05;;;;;;;;;;6104813;19;20010;-70
2022/12/23 00:02:26;;;;;;;34.90;11.82;;;;;;;;;;6105832;19;20373;-70
2022/12/23 00:04:34;;;;;;;27.88;10.23;;;;;;;;;;6106232;19;20006;-70
2022/12/23 00:06:39;;;;;;;26.33;10.18;;;;;;;;;;6103962;19;20014;-70
2022/12/23 00:08:45;;;;;;;49.72;13.45;;;;;;;;;;6103333;19;20704;-70
2022/12/23 00:10:51;;;;;;;42.20;11.80;;;;;;;;;;6102242;19;20006;-70
2022/12/23 00:15:11;;;;;;;36.80;11.90;;;;;;;;;;6104812;19;20017;-70
2022/12/23 00:17:18;;;;;;;;;;;;;;;;;;6105986;19;20030;-70
2022/12/23 00:19:26;;;;;;;35.80;11.82;;;;;;;;;;6104664;19;20278;-70
2022/12/23 00:21:31;;;;;;;39.25;12.52;;;;;;;;;;6108206;19;20105;-70
2022/12/23 00:23:36;;;;;;;38.28;11.63;;;;;;;;;;6109906;19;20006;-71
2022/12/23 00:25:43;;;;;;;40.38;13.73;;;;;;;;;;6112598;19;20021;-70
2022/12/23 00:28:00;;;;;;;39.08;12.80;;;;;;;;;;6111203;19;20015;-70
2022/12/23 00:30:06;;;;;;;44.22;13.02;;;;;;;;;;6110747;19;20014;-70
2022/12/23 00:32:10;;;;;;;32.72;12.98;;;;;;;;;;6110444;19;20006;-70
2022/12/23 00:34:18;;;;;;;44.38;13.45;;;;;;;;;;6107926;19;20017;-70
2022/12/23 00:36:26;;;;;;;38.88;12.90;;;;;;;;;;6110670;19;20013;-70
2022/12/23 00:43:09;;;;;;;29.67;11.27;;;;;;;;;;6106851;19;20015;-70
2022/12/23 00:45:17;;;;;;;23.05;9.48;;;;;;;;;;6109152;19;20010;-70
2022/12/23 00:49:44;;;;;;;27.58;12.10;;;;;;;;;;6109682;19;20344;-71
2022/12/23 00:51:49;;;;;;;31.95;11.32;;;;;;;;;;6109068;19;20038;-71
2022/12/23 00:53:54;;;;;;;33.00;11.95;;;;;;;;;;6105774;19;20018;-71
2022/12/23 00:55:59;;;;;;;32.55;12.10;;;;;;;;;;6109856;19;20438;-71
2022/12/23 00:58:03;;;;;;;39.13;11.75;;;;;;;;;;6108227;19;20006;-71
2022/12/23 01:00:10;;;;;;;39.28;11.85;;;;;;;;;;6110502;19;20518;-71
2022/12/23 01:06:52;;;;;;;45.45;14.18;;;;;;;;;;6109485;19;20467;-70
2022/12/23 01:08:57;;;;;;;40.58;13.20;;;;;;;;;;6106349;19;20286;-71
2022/12/23 01:11:04;;;;;;;37.42;11.52;;;;;;;;;;6108144;19;20024;-70
2022/12/23 01:13:09;;;;;;;27.27;11.35;;;;;;;;;;6109034;19;20714;-70
2022/12/23 01:15:14;;;;;;;34.47;12.85;;;;;;;;;;6106359;19;20038;-70
2022/12/23 01:17:19;;;;;;;40.92;13.20;;;;;;;;;;6110228;19;20369;-70
2022/12/23 01:19:24;;;;;;;33.00;12.00;;;;;;;;;;6108606;19;20013;-70
2022/12/23 01:21:31;;;;;;;33.75;12.85;;;;;;;;;;6110701;19;20019;-70
2022/12/23 01:23:39;;;;;;;31.15;12.10;;;;;;;;;;6110324;19;20033;-70
2022/12/23 01:25:43;;;;;;;32.83;11.93;;;;;;;;;;6109276;19;20010;-71
2022/12/23 01:27:48;;;;;;;36.38;13.07;;;;;;;;;;6110433;19;20282;-70
2022/12/23 01:29:53;;;;;;;33.33;12.57;;;;;;;;;;6109783;19;20353;-71
2022/12/23 01:31:58;;;;;;;27.42;12.02;;;;;;;;;;6107058;19;20011;-71
2022/12/23 01:34:03;;;;;;;35.42;12.18;;;;;;;;;;6106876;19;20011;-71
2022/12/23 01:36:09;;;;;;;40.13;14.65;;;;;;;;;;6106076;19;20003;-71
2022/12/23 01:38:14;;;;;;;30.10;12.85;;;;;;;;;;6107105;19;20976;-70
2022/12/23 01:40:22;;;;;;;27.48;13.27;;;;;;;;;;6105175;19;20034;-70
2022/12/23 01:44:56;;;;;;;42.42;14.65;;;;;;;;;;6107265;19;20474;-71
2022/12/23 01:47:01;;;;;;;32.97;12.77;;;;;;;;;;6103913;19;20018;-70
2022/12/23 01:49:06;;;;;;;29.30;12.70;;;;;;;;;;6108531;19;20014;-71
2022/12/23 01:51:14;;;;;;;34.13;12.88;;;;;;;;;;6107566;19;20010;-70
2022/12/23 01:53:21;;;;;;;40.40;13.63;;;;;;;;;;6105164;19;20025;-70
2022/12/23 01:55:31;;;;;;;32.97;10.93;;;;;;;;;;6108694;19;20465;-70
2022/12/23 01:57:37;;;;;;;33.95;11.38;;;;;;;;;;6108722;19;20022;-70
2022/12/23 02:04:21;;;;;;;20.15;7.10;;;;;;;;;;6108601;19;20317;-70
2022/12/23 02:11:15;;;;;;;15.30;6.90;;;;;;;;;;6105466;19;20346;-71
2022/12/23 02:13:25;;;;;;;14.35;5.90;;;;;;;;;;6107849;19;20090;-70
2022/12/23 02:18:04;;;;;;;16.00;6.57;;;;;;;;;;6107118;19;20006;-71
2022/12/23 02:20:37;;;;;;;16.02;6.38;;;;;;;;;;6107828;19;20010;-71
2022/12/23 02:22:55;;;;;;;14.80;6.90;;;;;;;;;;6102335;19;20010;-71
2022/12/23 02:25:25;;;;;;;13.90;6.38;;;;;;;;;;6103003;19;20029;-70
2022/12/23 02:27:34;;;;;;;17.10;6.40;;;;;;;;;;6107854;19;20010;-71
2022/12/23 02:30:18;;;;;;;12.85;6.35;;;;;;;;;;6108266;19;20007;-70
2022/12/23 02:32:27;;;;;;;15.65;6.90;;;;;;;;;;6107420;19;20102;-71
2022/12/23 02:34:39;;;;;;;18.20;7.70;;;;;;;;;;6107320;19;20042;-71
2022/12/23 02:36:49;;;;;;;14.80;7.10;;;;;;;;;;6107478;19;20527;-70
2022/12/23 02:38:59;;;;;;;16.85;7.68;;;;;;;;;;6105896;19;20054;-70
2022/12/23 02:41:09;;;;;;;17.85;8.02;;;;;;;;;;6104743;19;20014;-70
2022/12/23 02:43:17;;;;;;;20.15;9.32;;;;;;;;;;6107063;19;20033;-70
2022/12/23 02:45:26;;;;;;;17.98;8.40;;;;;;;;;;6104329;19;20486;-70
2022/12/23 02:47:37;;;;;;;19.25;7.88;;;;;;;;;;6106817;19;20015;-69
2022/12/23 02:49:44;;;;;;;18.30;8.07;;;;;;;;;;6108076;19;20503;-70
2022/12/23 02:51:50;;;;;;;19.92;9.05;;;;;;;;;;6104483;19;20007;-69
2022/12/23 02:53:57;;;;;;;21.20;8.40;;;;;;;;;;6100878;19;20089;-70
2022/12/23 02:56:03;;;;;;;20.10;9.35;;;;;;;;;;6102328;19;20025;-70
2022/12/23 02:58:12;;;;;;;19.95;8.77;;;;;;;;;;6104208;19;20027;-69
2022/12/23 03:00:17;;;;;;;19.35;8.82;;;;;;;;;;6102843;19;20029;-69
2022/12/23 03:02:22;;;;;;;20.38;9.52;;;;;;;;;;6103338;19;20094;-69
2022/12/23 03:04:29;;;;;;;18.33;8.50;;;;;;;;;;6104722;19;20021;-69
2022/12/23 03:06:38;;;;;;;17.52;8.50;;;;;;;;;;6103229;19;20388;-69
2022/12/23 03:08:46;;;;;;;19.67;9.65;;;;;;;;;;6103988;19;20014;-69
2022/12/23 03:11:02;;;;;;;19.25;8.23;;;;;;;;;;6103221;19;20002;-70
2022/12/23 03:13:16;;;;;;;16.85;9.02;;;;;;;;;;6102342;19;20398;-69
2022/12/23 03:15:27;;;;;;;15.95;7.03;;;;;;;;;;6105526;19;20018;-69
2022/12/23 03:17:37;;;;;;;16.58;7.68;;;;;;;;;;6103935;19;20049;-69
2022/12/23 03:19:52;;;;;;;18.77;8.85;;;;;;;;;;6105390;19;20399;-69
2022/12/23 03:22:02;;;;;;;16.55;7.95;;;;;;;;;;6102792;19;20020;-70
2022/12/23 03:24:16;;;;;;;19.65;8.65;;;;;;;;;;6102416;19;20022;-70
2022/12/23 03:26:25;;;;;;;16.30;8.45;;;;;;;;;;6102389;19;20010;-70
2022/12/23 03:28:35;;;;;;;19.48;9.18;;;;;;;;;;6105433;19;20380;-69
2022/12/23 03:30:42;;;;;;;19.00;8.55;;;;;;;;;;6103722;19;20014;-69
2022/12/23 03:32:50;;;;;;;20.17;8.23;;;;;;;;;;6096788;19;20015;-70
2022/12/23 03:34:59;;;;;;;20.65;8.88;;;;;;;;;;6103745;19;20635;-69
2022/12/23 03:37:06;;;;;;;18.73;8.30;;;;;;;;;;6103918;19;20027;-69
2022/12/23 03:39:16;;;;;;;16.85;8.35;;;;;;;;;;6104599;19;20023;-69
2022/12/23 03:41:30;;;;;;;17.30;8.55;;;;;;;;;;6103634;19;20025;-70
2022/12/23 03:43:39;;;;;;;16.25;8.25;;;;;;;;;;6104383;19;20082;-69
2022/12/23 03:45:55;;;;;;;17.10;7.95;;;;;;;;;;6104152;19;20466;-70
2022/12/23 03:48:04;;;;;;;18.83;9.38;;;;;;;;;;6102231;19;20081;-69
2022/12/23 03:50:14;;;;;;;21.70;9.75;;;;;;;;;;6103102;19;20395;-69
2022/12/23 03:52:21;;;;;;;21.80;9.82;;;;;;;;;;6097636;19;20010;-70
2022/12/23 03:54:29;;;;;;;29.17;11.30;;;;;;;;;;6099985;19;20119;-70
2022/12/23 03:56:37;;;;;;;23.67;11.15;;;;;;;;;;6105208;19;20504;-70
2022/12/23 03:58:44;;;;;;;22.48;10.35;;;;;;;;;;6108445;19;20050;-70
2022/12/23 04:00:52;;;;;;;21.98;10.55;;;;;;;;;;6108138;19;20364;-69
2022/12/23 04:03:01;;;;;;;20.02;9.23;;;;;;;;;;6105813;19;20014;-70
2022/12/23 04:05:18;;;;;;;22.08;10.52;;;;;;;;;;6109154;19;20104;-69
2022/12/23 04:07:24;;;;;;;23.00;11.40;;;;;;;;;;6108539;19;20011;-70
2022/12/23 04:09:30;;;;;;;27.25;11.38;;;;;;;;;;6109156;19;20042;-70
2022/12/23 04:11:36;;;;;;;24.10;11.55;;;;;;;;;;6108385;19;20027;-70
2022/12/23 04:13:41;;;;;;;23.35;12.15;;;;;;;;;;6107402;19;20031;-69
2022/12/23 04:15:46;;;;;;;22.75;11.35;;;;;;;;;;6107297;19;21509;-70
2022/12/23 04:17:50;;;;;;;23.83;11.38;;;;;;;;;;6107864;19;20011;-70
2022/12/23 04:19:55;;;;;;;27.98;12.27;;;;;;;;;;6107272;19;20011;-70
2022/12/23 04:22:04;;;;;;;27.00;13.35;;;;;;;;;;6107275;19;20547;-70
2022/12/23 04:24:09;;;;;;;25.65;12.02;;;;;;;;;;6105259;19;20558;-69
2022/12/23 04:26:14;;;;;;;21.60;10.25;;;;;;;;;;6107475;19;20467;-69
2022/12/23 04:28:19;;;;;;;23.77;11.73;;;;;;;;;;6107302;19;20301;-69
2022/12/23 04:30:24;;;;;;;24.17;10.50;;;;;;;;;;6102526;19;20006;-68
2022/12/23 04:32:37;;;;;;;22.83;10.98;;;;;;;;;;6105849;19;20406;-70
2022/12/23 04:34:42;;;;;;;24.23;11.63;;;;;;;;;;6107107;19;20490;-69
2022/12/23 04:36:47;;;;;;;22.10;9.95;;;;;;;;;;6107388;19;20101;-70
2022/12/23 04:38:54;;;;;;;22.67;10.73;;;;;;;;;;6106803;19;20058;-70
2022/12/23 04:40:59;;;;;;;24.60;10.48;;;;;;;;;;6104633;19;20027;-69
2022/12/23 04:43:03;;;;;;;30.13;13.20;;;;;;;;;;6105283;19;20493;-69
2022/12/23 04:45:10;;;;;;;31.15;13.00;;;;;;;;;;6107388;19;20341;-70
2022/12/23 04:47:14;;;;;;;25.00;12.25;;;;;;;;;;6106471;19;20019;-69
2022/12/23 04:49:19;;;;;;;24.15;11.25;;;;;;;;;;6107231;19;20017;-71
2022/12/23 04:51:24;;;;;;;25.67;12.30;;;;;;;;;;6107413;19;20015;-71
2022/12/23 04:53:29;;;;;;;25.17;12.10;;;;;;;;;;6099432;19;20015;-69
2022/12/23 04:55:37;;;;;;;27.27;12.50;;;;;;;;;;6107811;19;20019;-69
2022/12/23 04:57:42;;;;;;;24.55;11.27;;;;;;;;;;6106102;19;20403;-69
2022/12/23 04:59:46;;;;;;;27.08;12.55;;;;;;;;;;6106613;19;20018;-70
2022/12/23 05:01:51;;;;;;;22.75;11.35;;;;;;;;;;6105016;19;20013;-70
2022/12/23 05:03:56;;;;;;;25.33;11.75;;;;;;;;;;6105784;19;20006;-70
2022/12/23 05:06:01;;;;;;;25.33;11.02;;;;;;;;;;6105364;19;20041;-69
2022/12/23 05:08:07;;;;;;;22.58;10.40;;;;;;;;;;6105620;19;20033;-69
2022/12/23 05:10:13;;;;;;;25.10;11.57;;;;;;;;;;6106725;19;20035;-69
2022/12/23 05:12:20;;;;;;;20.23;9.48;;;;;;;;;;6105197;19;20086;-69
2022/12/23 05:14:25;;;;;;;20.50;10.50;;;;;;;;;;6107238;19;20034;-69
2022/12/23 05:16:30;;;;;;;24.10;11.15;;;;;;;;;;6104918;19;20015;-70
2022/12/23 05:18:35;;;;;;;19.60;8.48;;;;;;;;;;6106318;19;20360;-70
2022/12/23 05:20:40;;;;;;;18.88;10.13;;;;;;;;;;6106214;19;20384;-69
2022/12/23 05:22:44;;;;;;;19.35;9.57;;;;;;;;;;6106850;19;20637;-70
2022/12/23 05:24:49;;;;;;;18.30;9.25;;;;;;;;;;6105928;19;20086;-70
2022/12/23 05:26:54;;;;;;;19.13;9.27;;;;;;;;;;6106186;19;20011;-70
2022/12/23 05:29:06;;;;;;;23.33;10.20;;;;;;;;;;6103328;19;20039;-69
2022/12/23 05:31:12;;;;;;;19.98;8.60;;;;;;;;;;6104750;19;20011;-69
2022/12/23 05:33:17;;;;;;;19.20;9.43;;;;;;;;;;6106338;19;20033;-69
2022/12/23 05:35:22;;;;;;;18.10;8.85;;;;;;;;;;6105705;19;20380;-69
2022/12/23 05:37:27;;;;;;;23.13;11.70;;;;;;;;;;6106628;19;20554;-69
2022/12/23 05:39:32;;;;;;;19.63;9.82;;;;;;;;;;6107491;19;20034;-69
2022/12/23 05:41:36;;;;;;;20.58;9.65;;;;;;;;;;6109294;19;20034;-69
2022/12/23 05:43:41;;;;;;;18.90;9.18;;;;;;;;;;6109926;19;20495;-69
2022/12/23 05:45:49;;;;;;;17.95;9.05;;;;;;;;;;6108637;19;20023;-69
2022/12/23 05:47:53;;;;;;;23.35;10.80;;;;;;;;;;6106887;19;20364;-69
2022/12/23 05:49:58;;;;;;;18.88;8.77;;;;;;;;;;6105025;19;20352;-69
2022/12/23 05:52:03;;;;;;;16.08;7.97;;;;;;;;;;6104973;19;20027;-70
2022/12/23 05:54:07;;;;;;;14.82;6.82;;;;;;;;;;6105425;19;20038;-70
2022/12/23 05:56:12;;;;;;;15.68;7.10;;;;;;;;;;6107380;19;20051;-70
2022/12/23 05:58:17;;;;;;;16.77;7.72;;;;;;;;;;6104309;19;20357;-70
2022/12/23 06:00:25;;;;;;;17.70;8.20;;;;;;;;;;6103896;19;20739;-71
2022/12/23 06:02:32;;;;;;;18.55;8.77;;;;;;;;;;6106291;19;20014;-70
2022/12/23 06:04:37;;;;;;;17.33;7.88;;;;;;;;;;6104366;19;20358;-70
2022/12/23 06:06:42;;;;;;;17.48;8.23;;;;;;;;;;6106656;19;20010;-70
2022/12/23 06:08:47;;;;;;;18.50;8.55;;;;;;;;;;6105961;19;20019;-70
2022/12/23 06:10:58;;;;;;;18.38;8.23;;;;;;;;;;6102211;19;20482;-71
2022/12/23 06:13:03;;;;;;;18.15;9.55;;;;;;;;;;6105104;19;20026;-69
2022/12/23 06:15:09;;;;;;;20.33;10.13;;;;;;;;;;6106230;19;20010;-69
2022/12/23 06:17:14;;;;;;;21.58;9.82;;;;;;;;;;6105978;19;20729;-70
2022/12/23 06:19:21;;;;;;;19.90;10.63;;;;;;;;;;6103147;19;20002;-70
2022/12/23 06:21:27;;;;;;;24.75;11.00;;;;;;;;;;6103895;19;20020;-70
2022/12/23 06:23:32;;;;;;;21.70;9.55;;;;;;;;;;6104963;19;20086;-70
2022/12/23 06:25:36;;;;;;;18.30;9.25;;;;;;;;;;6104427;19;20031;-70
2022/12/23 06:27:41;;;;;;;18.73;8.27;;;;;;;;;;6104596;19;20372;-70
2022/12/23 06:29:46;;;;;;;23.60;9.45;;;;;;;;;;6105332;19;20006;-70
2022/12/23 06:31:51;;;;;;;21.40;10.05;;;;;;;;;;6105345;19;20010;-71
2022/12/23 06:33:56;;;;;;;20.63;10.57;;;;;;;;;;6103252;19;20488;-70
2022/12/23 06:36:03;;;;;;;28.05;13.48;;;;;;;;;;6106899;19;20358;-69
2022/12/23 06:38:08;;;;;;;27.55;13.68;;;;;;;;;;6107043;19;20010;-70
2022/12/23 06:40:16;;;;;;;22.50;11.27;;;;;;;;;;6106578;19;20417;-70
2022/12/23 06:42:20;;;;;;;22.13;11.43;;;;;;;;;;6104913;19;20014;-69
2022/12/23 06:44:25;;;;;;;24.85;11.63;;;;;;;;;;6105653;19;20014;-68
2022/12/23 06:46:30;;;;;;;22.92;10.75;;;;;;;;;;6104563;19;20011;-68
2022/12/23 06:48:35;;;;;;;25.85;11.52;;;;;;;;;;6104128;19;20106;-70
2022/12/23 06:50:39;;;;;;;23.27;10.27;;;;;;;;;;6103604;19;20016;-70
2022/12/23 06:52:47;;;;;;;22.15;11.00;;;;;;;;;;6102040;19;20465;-68
2022/12/23 06:54:52;;;;;;;27.30;12.30;;;;;;;;;;6103451;19;20525;-70
2022/12/23 06:56:57;;;;;;;24.10;12.32;;;;;;;;;;6101552;19;20011;-69
2022/12/23 06:59:02;;;;;;;24.75;11.55;;;;;;;;;;6103109;19;20018;-68
2022/12/23 07:01:07;;;;;;;23.17;11.63;;;;;;;;;;6103421;19;20496;-70
2022/12/23 07:03:13;;;;;;;27.08;12.63;;;;;;;;;;6104921;19;20411;-68
2022/12/23 07:05:18;;;;;;;26.50;13.23;;;;;;;;;;6100745;19;20021;-68
2022/12/23 07:07:23;;;;;;;27.20;12.52;;;;;;;;;;6100147;19;20010;-70
2022/12/23 07:09:31;;;;;;;22.35;11.27;;;;;;;;;;6106818;19;20014;-68
2022/12/23 07:11:35;;;;;;;27.27;13.15;;;;;;;;;;6105932;19;20027;-68
2022/12/23 07:13:40;;;;;;;25.65;13.40;;;;;;;;;;6106066;19;20115;-68
2022/12/23 07:15:45;;;;;;;26.80;12.80;;;;;;;;;;6106085;19;20050;-69
2022/12/23 07:17:51;;;;;;;31.42;13.98;;;;;;;;;;6104355;19;20038;-69
2022/12/23 07:19:55;;;;;;;28.92;13.77;;;;;;;;;;6107857;19;20014;-69
2022/12/23 07:22:00;;;;;;;27.33;13.57;;;;;;;;;;6105342;19;20015;-70
2022/12/23 07:24:06;;;;;;;30.65;13.57;;;;;;;;;;6105755;19;20019;-70
2022/12/23 07:26:13;;;;;;;27.20;14.07;;;;;;;;;;6103619;19;20007;-70
2022/12/23 07:28:18;;;;;;;34.97;15.52;;;;;;;;;;6103412;19;20523;-70
2022/12/23 07:30:24;;;;;;;30.00;14.77;;;;;;;;;;6100227;19;20038;-70
2022/12/23 07:32:29;;;;;;;30.13;15.10;;;;;;;;;;6104212;19;20083;-70
2022/12/23 07:34:34;;;;;;;32.53;14.15;;;;;;;;;;6100754;19;20017;-69
2022/12/23 07:36:39;;;;;;;37.35;14.85;;;;;;;;;;6103258;19;20623;-70
2022/12/23 07:38:44;;;;;;;34.25;15.50;;;;;;;;;;6103404;19;20007;-70
2022/12/23 07:40:50;;;;;;;35.63;13.90;;;;;;;;;;6105904;19;20411;-69
2022/12/23 07:42:59;;;;;;;32.22;13.32;;;;;;;;;;6104299;19;20033;-68
2022/12/23 07:45:04;;;;;;;35.75;15.50;;;;;;;;;;6101687;19;20018;-68
2022/12/23 07:47:08;;;;;;;32.72;12.93;;;;;;;;;;6105688;19;20010;-68
2022/12/23 07:49:13;;;;;;;36.85;13.73;;;;;;;;;;6104071;19;20517;-68
2022/12/23 07:51:18;;;;;;;38.90;15.65;;;;;;;;;;6104917;19;20074;-68
2022/12/23 07:53:23;;;;;;;34.10;13.55;;;;;;;;;;6103469;19;20251;-68
2022/12/23 07:55:28;;;;;;;28.23;12.77;;;;;;;;;;6105168;19;20027;-69
2022/12/23 07:57:36;;;;;;;36.15;12.68;;;;;;;;;;6104957;19;20011;-70
2022/12/23 07:59:44;;;;;;;30.85;12.70;;;;;;;;;;6101834;19;20401;-69
2022/12/23 08:01:49;;;;;;;27.63;11.90;;;;;;;;;;6102465;19;20018;-68
2022/12/23 08:03:54;;;;;;;28.38;11.60;;;;;;;;;;6105126;19;20364;-69
2022/12/23 08:06:03;;;;;;;20.33;9.57;;;;;;;;;;6105416;19;20018;-69
2022/12/23 08:08:08;;;;;;;26.75;10.40;;;;;;;;;;6104704;19;20011;-70
2022/12/23 08:10:14;;;;;;;24.27;10.18;;;;;;;;;;6105000;19;20098;-70
2022/12/23 08:12:18;;;;;;;24.75;11.02;;;;;;;;;;6104753;19;20025;-70
2022/12/23 08:14:23;;;;;;;20.25;8.27;;;;;;;;;;6104214;19;20040;-69
2022/12/23 08:16:30;;;;;;;20.92;9.20;;;;;;;;;;6105822;19;20023;-69
2022/12/23 08:18:43;;;;;;;18.98;7.97;;;;;;;;;;6105681;19;20467;-70
2022/12/23 08:20:55;;;;;;;18.90;8.40;;;;;;;;;;6104571;19;20652;-70
2022/12/23 08:23:02;;;;;;;19.95;7.75;;;;;;;;;;6102111;19;20042;-70
2022/12/23 08:25:08;;;;;;;20.42;7.97;;;;;;;;;;6104645;19;20095;-69
2022/12/23 08:27:13;;;;;;;20.10;8.25;;;;;;;;;;6104099;19;20017;-69
2022/12/23 08:29:18;;;;;;;20.70;7.55;;;;;;;;;;6104680;19;20013;-69
2022/12/23 08:31:24;;;;;;;18.95;8.43;;;;;;;;;;6103491;19;20011;-69
2022/12/23 08:33:32;;;;;;;19.58;8.77;;;;;;;;;;6104280;19;20348;-70
2022/12/23 08:35:37;;;;;;;20.52;7.22;;;;;;;;;;6104269;19;20034;-70
2022/12/23 08:37:42;;;;;;;17.13;7.40;;;;;;;;;;6103297;19;20046;-69
2022/12/23 08:39:47;;;;;;;21.17;8.68;;;;;;;;;;6103976;19;20014;-70
2022/12/23 08:41:52;;;;;;;16.65;7.13;;;;;;;;;;6106674;19;20014;-70
2022/12/23 08:43:57;;;;;;;20.27;7.80;;;;;;;;;;6111161;19;20018;-70
2022/12/23 08:46:02;;;;;;;16.63;7.25;;;;;;;;;;6110174;19;20523;-69
2022/12/23 08:48:08;;;;;;;16.60;7.00;;;;;;;;;;6110348;19;20018;-70
2022/12/23 08:50:15;;;;;;;18.15;7.90;;;;;;;;;;6110189;19;20010;-70
2022/12/23 08:52:20;;;;;;;20.35;8.52;;;;;;;;;;6107605;19;20010;-70
2022/12/23 08:54:25;;;;;;;22.17;8.57;;;;;;;;;;6109139;19;20467;-70
2022/12/23 08:56:33;;;;;;;17.48;8.10;;;;;;;;;;6109549;19;20010;-69
2022/12/23 08:58:39;;;;;;;19.75;7.43;;;;;;;;;;6110760;19;20537;-70
2022/12/23 09:00:44;;;;;;;18.30;7.78;;;;;;;;;;6107050;19;20097;-70
2022/12/23 09:02:48;;;;;;;14.50;6.70;;;;;;;;;;6108834;19;20014;-70
2022/12/23 09:04:53;;;;;;;16.80;7.53;;;;;;;;;;6108359;19;20003;-69
2022/12/23 09:07:01;;;;;;;20.10;7.80;;;;;;;;;;6105226;19;20014;-69
2022/12/23 09:09:06;;;;;;;19.27;7.47;;;;;;;;;;6109650;19;20019;-69
2022/12/23 09:11:11;;;;;;;19.15;8.13;;;;;;;;;;6106027;19;20348;-71
2022/12/23 09:13:16;;;;;;;17.92;7.88;;;;;;;;;;6109945;19;20109;-69
2022/12/23 09:15:37;;;;;;;16.13;7.18;;;;;;;;;;6108907;19;20014;-69
2022/12/23 09:17:43;;;;;;;14.60;6.60;;;;;;;;;;6109557;19;20015;-69
2022/12/23 09:19:48;;;;;;;18.73;7.68;;;;;;;;;;6109337;19;20024;-69
2022/12/23 09:21:56;;;;;;;19.05;8.82;;;;;;;;;;6109540;19;20034;-69
2022/12/23 09:24:04;;;;;;;25.25;9.70;;;;;;;;;;6107952;19;20013;-69
2022/12/23 09:26:10;;;;;;;27.13;11.23;;;;;;;;;;6109532;19;20027;-70
2022/12/23 09:28:18;;;;;;;25.45;9.45;;;;;;;;;;6109807;19;20422;-69
2022/12/23 09:30:22;;;;;;;33.00;12.00;;;;;;;;;;6108694;19;20079;-69
2022/12/23 09:32:27;;;;;;;32.58;10.85;;;;;;;;;;6107228;19;20136;-70
2022/12/23 09:34:32;;;;;;;34.58;14.07;;;;;;;;;;6109073;19;20014;-69
2022/12/23 09:36:37;;;;;;;35.53;12.73;;;;;;;;;;6107924;19;20031;-69
2022/12/23 09:38:42;;;;;;;38.70;13.27;;;;;;;;;;6109750;19;20515;-69
2022/12/23 09:40:49;;;;;;;41.67;14.68;;;;;;;;;;6109555;19;20018;-69
2022/12/23 09:43:03;;;;;;;37.30;13.00;;;;;;;;;;6109044;19;20015;-70
2022/12/23 09:45:16;;;;;;;46.10;15.32;;;;;;;;;;6105047;19;20378;-70
2022/12/23 09:47:21;;;;;;;;;;;;;;;;;;6108559;19;20071;-68
2022/12/23 09:49:26;;;;;;;33.83;12.85;;;;;;;;;;6107363;19;19911;-68
2022/12/23 09:51:31;;;;;;;42.40;13.65;;;;;;;;;;6108851;19;20006;-69
2022/12/23 09:53:51;;;;;;;48.53;15.38;;;;;;;;;;6102664;19;20519;-69
2022/12/23 09:56:02;;;;;;;42.65;13.80;;;;;;;;;;6105678;19;20018;-69
2022/12/23 09:58:11;;;;;;;52.63;15.43;;;;;;;;;;6108870;19;20003;-68
2022/12/23 10:00:17;;;;;;;45.08;15.50;;;;;;;;;;6108051;19;20427;-68
2022/12/23 10:02:27;;;;;;;51.15;16.45;;;;;;;;;;6106876;19;20027;-68
2022/12/23 10:04:43;;;;;;;43.00;14.05;;;;;;;;;;6107526;19;20467;-68
2022/12/23 10:06:53;;;;;;;62.13;17.05;;;;;;;;;;6108032;19;20025;-68
2022/12/23 10:09:06;;;;;;;61.13;17.58;;;;;;;;;;6105546;19;20443;-67
2022/12/23 10:11:16;;;;;;;60.00;18.40;;;;;;;;;;6106990;19;20025;-68
2022/12/23 10:13:28;;;;;;;66.38;18.67;;;;;;;;;;6104501;19;20027;-69
2022/12/23 10:15:38;;;;;;;62.13;19.58;;;;;;;;;;6104866;19;20021;-68
2022/12/23 10:17:43;;;;;;;64.43;18.08;;;;;;;;;;6105593;19;20018;-70
2022/12/23 10:19:49;;;;;;;73.53;18.33;;;;;;;;;;6109620;19;20009;-69
2022/12/23 10:21:58;;;;;;;62.10;18.30;;;;;;;;;;6109486;19;20574;-69
2022/12/23 10:24:05;;;;;;;55.50;17.55;;;;;;;;;;6109359;19;20023;-70
2022/12/23 10:26:17;;;;;;;71.63;19.90;;;;;;;;;;6109793;19;20015;-69
2022/12/23 10:28:21;;;;;;;60.47;18.70;;;;;;;;;;6104719;19;20014;-70
2022/12/23 10:30:40;;;;;;;68.80;20.75;;;;;;;;;;6104378;19;20099;-69
2022/12/23 10:33:09;;;;;;;57.63;17.60;;;;;;;;;;6102684;19;20409;-68
2022/12/23 10:35:20;;;;;;;60.75;18.90;;;;;;;;;;6104217;19;20085;-68
2022/12/23 10:37:33;;;;;;;67.18;20.42;;;;;;;;;;6103084;19;20743;-68
2022/12/23 10:39:41;;;;;;;56.22;19.30;;;;;;;;;;6105454;19;20025;-67
2022/12/23 10:41:55;;;;;;;63.67;21.20;;;;;;;;;;6103287;19;20006;-68
2022/12/23 10:44:27;;;;;;;57.78;21.10;;;;;;;;;;6107117;19;20420;-68
2022/12/23 10:46:40;;;;;;;63.40;19.73;;;;;;;;;;6103709;19;20002;-68
2022/12/23 10:48:52;;;;;;;71.68;19.63;;;;;;;;;;6103323;19;20015;-68
2022/12/23 10:51:01;;;;;;;55.60;19.35;;;;;;;;;;6103782;19;20014;-68
2022/12/23 10:53:09;;;;;;;55.05;19.40;;;;;;;;;;6104095;19;20022;-68
2022/12/23 10:55:21;;;;;;;57.05;20.35;;;;;;;;;;6106256;19;20038;-69
2022/12/23 10:57:34;;;;;;;49.53;18.92;;;;;;;;;;6106807;19;20010;-70
2022/12/23 10:59:40;;;;;;;43.35;20.30;;;;;;;;;;6106130;19;20086;-70
2022/12/23 11:01:46;;;;;;;51.47;17.83;;;;;;;;;;6106478;19;20365;-70
2022/12/23 11:03:57;;;;;;;49.95;18.65;;;;;;;;;;6105228;19;20015;-70
2022/12/23 11:06:02;;;;;;;47.70;16.25;;;;;;;;;;6104251;19;20459;-68
2022/12/23 11:08:07;;;;;;;54.33;18.30;;;;;;;;;;6104275;19;20038;-68
2022/12/23 11:10:18;;;;;;;46.05;16.67;;;;;;;;;;6100679;19;20014;-69
2022/12/23 11:12:25;;;;;;;41.95;17.00;;;;;;;;;;6102401;19;20007;-69
2022/12/23 11:14:38;;;;;;;39.03;17.52;;;;;;;;;;6104261;19;20022;-69
2022/12/23 11:16:47;;;;;;;45.38;19.70;;;;;;;;;;6102728;19;20027;-69
2022/12/23 11:19:01;;;;;;;44.67;18.23;;;;;;;;;;6103870;19;20009;-69
2022/12/23 11:21:07;;;;;;;49.67;17.13;;;;;;;;;;6100209;19;20015;-68
2022/12/23 11:23:25;;;;;;;49.17;20.20;;;;;;;;;;6104088;19;20011;-69
2022/12/23 11:25:34;;;;;;;41.28;18.35;;;;;;;;;;6103694;19;20577;-69
2022/12/23 11:27:40;;;;;;;40.70;16.35;;;;;;;;;;6104280;19;20014;-70
2022/12/23 11:29:51;;;;;;;41.90;19.10;;;;;;;;;;6104889;19;20370;-69
2022/12/23 11:31:56;;;;;;;48.95;19.38;;;;;;;;;;6105405;19;20364;-69
2022/12/23 11:34:03;;;;;;;43.53;19.52;;;;;;;;;;6103604;19;20034;-72
2022/12/23 11:36:10;;;;;;;45.78;20.23;;;;;;;;;;6103693;19;20018;-70
2022/12/23 11:38:15;;;;;;;41.17;19.52;;;;;;;;;;6102626;19;20028;-70
2022/12/23 11:40:26;;;;;;;49.72;20.48;;;;;;;;;;6101642;19;20011;-70
2022/12/23 11:42:32;;;;;;;45.45;20.30;;;;;;;;;;6101629;19;20046;-70
2022/12/23 11:44:40;;;;;;;45.08;21.48;;;;;;;;;;6100643;19;20018;-71
2022/12/23 11:46:50;;;;;;;46.92;19.60;;;;;;;;;;6102552;19;20077;-70
2022/12/23 11:49:07;;;;;;;42.85;18.38;;;;;;;;;;6102113;19;20305;-70
2022/12/23 11:51:12;;;;;;;47.10;21.25;;;;;;;;;;6098713;19;20039;-70
2022/12/23 11:53:23;;;;;;;42.17;18.25;;;;;;;;;;6099955;19;20032;-71
2022/12/23 11:55:31;;;;;;;49.50;21.75;;;;;;;;;;6102656;19;20039;-70
2022/12/23 11:57:41;;;;;;;43.05;19.65;;;;;;;;;;6102543;19;20002;-70
2022/12/23 11:59:49;;;;;;;46.90;21.58;;;;;;;;;;6101787;19;20690;-70
2022/12/23 12:01:58;;;;;;;44.20;20.10;;;;;;;;;;6099556;19;20451;-70
2022/12/23 12:04:05;;;;;;;52.85;21.45;;;;;;;;;;6106242;19;20397;-70
2022/12/23 12:06:15;;;;;;;49.10;21.60;;;;;;;;;;6106611;19;20128;-69
2022/12/23 12:08:23;;;;;;;47.88;21.63;;;;;;;;;;6106386;19;20010;-69
2022/12/23 12:10:30;;;;;;;51.03;19.63;;;;;;;;;;6099984;19;20018;-70
2022/12/23 12:12:35;;;;;;;49.88;21.42;;;;;;;;;;6104096;19;20074;-70
2022/12/23 12:14:43;;;;;;;47.25;22.30;;;;;;;;;;6102576;19;20021;-70
2022/12/23 12:17:04;;;;;;;55.17;23.25;;;;;;;;;;6103840;19;20042;-70
2022/12/23 12:19:13;;;;;;;45.58;20.67;;;;;;;;;;6104822;19;20010;-70
2022/12/23 12:21:22;;;;;;;51.85;20.85;;;;;;;;;;6106316;19;20007;-71
2022/12/23 12:23:30;;;;;;;50.13;22.90;;;;;;;;;;6109211;19;20031;-69
2022/12/23 12:25:41;;;;;;;51.58;21.30;;;;;;;;;;6109727;19;20021;-70
2022/12/23 12:27:49;;;;;;;47.65;20.00;;;;;;;;;;6111248;19;20014;-70
2022/12/23 12:29:57;;;;;;;54.80;20.30;;;;;;;;;;6110882;19;20113;-70
2022/12/23 12:32:18;;;;;;;38.50;18.25;;;;;;;;;;6109029;19;20360;-70
2022/12/23 12:34:37;;;;;;;40.97;19.65;;;;;;;;;;6109264;19;20007;-70
2022/12/23 12:36:47;;;;;;;42.90;18.95;;;;;;;;;;6108935;19;20007;-69
2022/12/23 12:38:52;;;;;;;43.95;18.38;;;;;;;;;;6106975;19;20022;-69
2022/12/23 12:41:00;;;;;;;43.00;19.27;;;;;;;;;;6105679;19;20011;-69
2022/12/23 12:43:13;;;;;;;40.75;17.90;;;;;;;;;;6107466;19;20011;-68
2022/12/23 12:45:21;;;;;;;39.92;18.05;;;;;;;;;;6103936;19;20086;-69
2022/12/23 12:47:35;;;;;;;40.63;17.98;;;;;;;;;;6109840;19;20014;-68
2022/12/23 12:50:01;;;;;;;37.97;17.77;;;;;;;;;;6111198;19;20014;-68
2022/12/23 12:52:12;;;;;;;39.60;17.42;;;;;;;;;;6105099;19;20023;-69
2022/12/23 12:54:24;;;;;;;36.97;17.55;;;;;;;;;;6105117;19;20017;-68